sensor_id;sensor_type;location;lat;lon;timestamp;temperature;humidity
19449;DHT22;9863;49.404;8.246;2022-07-03T00:00:43;17.60;99.90
19449;DHT22;9863;49.404;8.246;2022-07-03T00:03:11;17.60;99.90
19449;DHT22;9863;49.404;8.246;2022-07-03T00:05:39;17.60;99.90
19449;DHT22;9863;49.404;8.246;2022-07-03T00:08:07;17.50;99.90
19449;DHT22;9863;49.404;8.246;2022-07-03T00:10:35;17.40;99.90
19449;DHT22;9863;49.404;8.246;2022-07-03T00:13:03;17.40;99.90
19449;DHT22;9863;49.404;8.246;2022-07-03T00:15:31;17.30;99.90
19449;DHT22;9863;49.404;8.246;2022-07-03T00:17:59;17.30;99.90
19449;DHT22;9863;49.404;8.246;2022-07-03T00:20:30;17.30;99.90
19449;DHT22;9863;49.404;8.246;2022-07-03T00:23:04;17.30;99.90
19449;DHT22;9863;49.404;8.246;2022-07-03T00:25:39;17.30;99.90
19449;DHT22;9863;49.404;8.246;2022-07-03T00:28:08;17.30;99.90
19449;DHT22;9863;49.404;8.246;2022-07-03T00:30:36;17.30;99.90
19449;DHT22;9863;49.404;8.246;2022-07-03T00:33:05;17.20;99.90
19449;DHT22;9863;49.404;8.246;2022-07-03T00:35:36;17.20;99.90
19449;DHT22;9863;49.404;8.246;2022-07-03T00:38:05;17.10;99.90
19449;DHT22;9863;49.404;8.246;2022-07-03T00:40:33;17.00;99.90
19449;DHT22;9863;49.404;8.246;2022-07-03T00:43:02;17.00;99.90
19449;DHT22;9863;49.404;8.246;2022-07-03T00:45:34;16.90;99.90
19449;DHT22;9863;49.404;8.246;2022-07-03T00:48:02;16.80;99.90
19449;DHT22;9863;49.404;8.246;2022-07-03T00:50:36;16.80;99.90
19449;DHT22;9863;49.404;8.246;2022-07-03T00:53:04;16.60;99.90
19449;DHT22;9863;49.404;8.246;2022-07-03T00:55:34;16.50;99.90
19449;DHT22;9863;49.404;8.246;2022-07-03T00:58:05;16.50;99.90
19449;DHT22;9863;49.404;8.246;2022-07-03T01:00:37;16.50;99.90
19449;DHT22;9863;49.404;8.246;2022-07-03T01:03:15;16.60;99.90
19449;DHT22;9863;49.404;8.246;2022-07-03T01:05:55;16.60;99.90
19449;DHT22;9863;49.404;8.246;2022-07-03T01:08:45;16.60;99.90
19449;DHT22;9863;49.404;8.246;2022-07-03T01:14:28;16.60;99.90
19449;DHT22;9863;49.404;8.246;2022-07-03T01:17:28;16.50;99.90
19449;DHT22;9863;49.404;8.246;2022-07-03T01:20:04;16.30;99.90
19449;DHT22;9863;49.404;8.246;2022-07-03T01:22:41;16.20;99.90
19449;DHT22;9863;49.404;8.246;2022-07-03T01:30:34;16.20;99.90
19449;DHT22;9863;49.404;8.246;2022-07-03T01:33:11;16.20;99.90
19449;DHT22;9863;49.404;8.246;2022-07-03T01:38:31;16.20;99.90
19449;DHT22;9863;49.404;8.246;2022-07-03T01:41:03;16.10;99.90
19449;DHT22;9863;49.404;8.246;2022-07-03T01:43:38;16.10;99.90
19449;DHT22;9863;49.404;8.246;2022-07-03T01:46:09;16.10;99.90
19449;DHT22;9863;49.404;8.246;2022-07-03T01:48:42;15.90;99.90
19449;DHT22;9863;49.404;8.246;2022-07-03T01:51:15;15.80;99.90
19449;DHT22;9863;49.404;8.246;2022-07-03T01:53:48;15.80;99.90
19449;DHT22;9863;49.404;8.246;2022-07-03T01:56:21;15.80;99.90
19449;DHT22;9863;49.404;8.246;2022-07-03T01:58:50;15.70;99.90
19449;DHT22;9863;49.404;8.246;2022-07-03T02:07:18;15.70;99.90
19449;DHT22;9863;49.404;8.246;2022-07-03T02:10:11;15.60;99.90
19449;DHT22;9863;49.404;8.246;2022-07-03T02:13:00;15.60;99.90
19449;DHT22;9863;49.404;8.246;2022-07-03T02:15:34;15.50;99.90
19449;DHT22;9863;49.404;8.246;2022-07-03T02:18:24;15.40;99.90
19449;DHT22;9863;49.404;8.246;2022-07-03T02:27:04;15.40;99.90
19449;DHT22;9863;49.404;8.246;2022-07-03T02:29:43;15.40;99.90
19449;DHT22;9863;49.404;8.246;2022-07-03T02:32:20;15.30;99.90
19449;DHT22;9863;49.404;8.246;2022-07-03T02:35:11;15.30;99.90
19449;DHT22;9863;49.404;8.246;2022-07-03T02:37:48;15.20;99.90
19449;DHT22;9863;49.404;8.246;2022-07-03T02:40:26;15.20;99.90
19449;DHT22;9863;49.404;8.246;2022-07-03T02:45:50;15.10;99.90
19449;DHT22;9863;49.404;8.246;2022-07-03T02:48:39;15.10;99.90
19449;DHT22;9863;49.404;8.246;2022-07-03T02:51:20;15.10;99.90
19449;DHT22;9863;49.404;8.246;2022-07-03T02:56:32;15.20;99.90
19449;DHT22;9863;49.404;8.246;2022-07-03T03:02:35;15.20;99.90
19449;DHT22;9863;49.404;8.246;2022-07-03T03:05:16;15.20;99.90
19449;DHT22;9863;49.404;8.246;2022-07-03T03:07:58;15.10;99.90
19449;DHT22;9863;49.404;8.246;2022-07-03T03:10:35;15.00;99.90
19449;DHT22;9863;49.404;8.246;2022-07-03T03:13:08;15.00;99.90
19449;DHT22;9863;49.404;8.246;2022-07-03T03:15:58;15.00;99.90
19449;DHT22;9863;49.404;8.246;2022-07-03T03:18:34;15.00;99.90
19449;DHT22;9863;49.404;8.246;2022-07-03T03:21:12;15.00;99.90
19449;DHT22;9863;49.404;8.246;2022-07-03T03:23:47;14.90;99.90
19449;DHT22;9863;49.404;8.246;2022-07-03T03:26:21;15.00;99.90
19449;DHT22;9863;49.404;8.246;2022-07-03T03:28:53;15.00;99.90
19449;DHT22;9863;49.404;8.246;2022-07-03T03:31:22;15.00;99.90
19449;DHT22;9863;49.404;8.246;2022-07-03T03:33:51;15.00;99.90
19449;DHT22;9863;49.404;8.246;2022-07-03T03:36:20;15.00;99.90
19449;DHT22;9863;49.404;8.246;2022-07-03T03:38:49;14.90;99.90
19449;DHT22;9863;49.404;8.246;2022-07-03T03:41:17;14.90;99.90
19449;DHT22;9863;49.404;8.246;2022-07-03T03:43:46;14.90;99.90
19449;DHT22;9863;49.404;8.246;2022-07-03T03:46:14;14.90;99.90
19449;DHT22;9863;49.404;8.246;2022-07-03T03:48:47;14.90;99.90
19449;DHT22;9863;49.404;8.246;2022-07-03T03:51:16;15.00;99.90
19449;DHT22;9863;49.404;8.246;2022-07-03T03:53:44;14.90;99.90
19449;DHT22;9863;49.404;8.246;2022-07-03T03:56:18;14.90;99.90
19449;DHT22;9863;49.404;8.246;2022-07-03T03:58:46;14.90;99.90
19449;DHT22;9863;49.404;8.246;2022-07-03T04:01:14;14.90;99.90
19449;DHT22;9863;49.404;8.246;2022-07-03T04:03:42;14.90;99.90
19449;DHT22;9863;49.404;8.246;2022-07-03T04:06:10;14.80;99.90
19449;DHT22;9863;49.404;8.246;2022-07-03T04:08:38;14.80;99.90
19449;DHT22;9863;49.404;8.246;2022-07-03T04:11:06;14.80;99.90
19449;DHT22;9863;49.404;8.246;2022-07-03T04:13:37;14.80;99.90
19449;DHT22;9863;49.404;8.246;2022-07-03T04:16:05;14.80;99.90
19449;DHT22;9863;49.404;8.246;2022-07-03T04:18:34;14.80;99.90
19449;DHT22;9863;49.404;8.246;2022-07-03T04:21:02;14.90;99.90
19449;DHT22;9863;49.404;8.246;2022-07-03T04:23:30;14.90;99.90
19449;DHT22;9863;49.404;8.246;2022-07-03T04:26:05;14.90;99.90
19449;DHT22;9863;49.404;8.246;2022-07-03T04:28:40;15.00;99.90
19449;DHT22;9863;49.404;8.246;2022-07-03T04:31:08;15.00;99.90
19449;DHT22;9863;49.404;8.246;2022-07-03T04:33:37;15.00;99.90
19449;DHT22;9863;49.404;8.246;2022-07-03T04:36:05;15.00;99.90
19449;DHT22;9863;49.404;8.246;2022-07-03T04:38:32;15.10;99.90
19449;DHT22;9863;49.404;8.246;2022-07-03T04:41:00;15.10;99.90
19449;DHT22;9863;49.404;8.246;2022-07-03T04:43:28;15.10;99.90
19449;DHT22;9863;49.404;8.246;2022-07-03T04:45:56;15.10;99.90
19449;DHT22;9863;49.404;8.246;2022-07-03T04:48:24;15.10;99.90
19449;DHT22;9863;49.404;8.246;2022-07-03T04:50:52;15.20;99.90
19449;DHT22;9863;49.404;8.246;2022-07-03T04:53:20;15.20;99.90
19449;DHT22;9863;49.404;8.246;2022-07-03T04:55:48;15.20;99.90
19449;DHT22;9863;49.404;8.246;2022-07-03T04:58:17;15.20;99.90
19449;DHT22;9863;49.404;8.246;2022-07-03T05:00:45;15.40;99.90
19449;DHT22;9863;49.404;8.246;2022-07-03T05:03:13;15.40;99.90
19449;DHT22;9863;49.404;8.246;2022-07-03T05:05:42;15.50;99.90
19449;DHT22;9863;49.404;8.246;2022-07-03T05:08:10;15.50;99.90
19449;DHT22;9863;49.404;8.246;2022-07-03T05:10:37;15.60;99.90
19449;DHT22;9863;49.404;8.246;2022-07-03T05:13:05;15.60;99.90
19449;DHT22;9863;49.404;8.246;2022-07-03T05:15:33;15.70;99.90
19449;DHT22;9863;49.404;8.246;2022-07-03T05:18:01;15.80;99.90
19449;DHT22;9863;49.404;8.246;2022-07-03T05:20:29;15.90;99.90
19449;DHT22;9863;49.404;8.246;2022-07-03T05:22:59;15.90;99.90
19449;DHT22;9863;49.404;8.246;2022-07-03T05:25:30;16.00;99.90
19449;DHT22;9863;49.404;8.246;2022-07-03T05:28:00;16.10;99.90
19449;DHT22;9863;49.404;8.246;2022-07-03T05:30:28;16.20;99.90
19449;DHT22;9863;49.404;8.246;2022-07-03T05:32:57;16.30;99.90
19449;DHT22;9863;49.404;8.246;2022-07-03T05:35:25;16.50;99.90
19449;DHT22;9863;49.404;8.246;2022-07-03T05:37:53;16.70;99.90
19449;DHT22;9863;49.404;8.246;2022-07-03T05:40:21;16.80;99.90
19449;DHT22;9863;49.404;8.246;2022-07-03T05:42:49;16.90;99.90
19449;DHT22;9863;49.404;8.246;2022-07-03T05:45:17;17.10;99.90
19449;DHT22;9863;49.404;8.246;2022-07-03T05:47:45;17.20;99.90
19449;DHT22;9863;49.404;8.246;2022-07-03T05:50:13;17.40;99.90
19449;DHT22;9863;49.404;8.246;2022-07-03T05:52:41;17.60;99.90
19449;DHT22;9863;49.404;8.246;2022-07-03T05:55:09;17.80;99.90
19449;DHT22;9863;49.404;8.246;2022-07-03T05:57:37;17.90;99.90
19449;DHT22;9863;49.404;8.246;2022-07-03T06:00:06;18.10;99.90
19449;DHT22;9863;49.404;8.246;2022-07-03T06:02:34;18.10;99.90
19449;DHT22;9863;49.404;8.246;2022-07-03T06:05:02;18.30;99.90
19449;DHT22;9863;49.404;8.246;2022-07-03T06:07:30;18.30;99.90
19449;DHT22;9863;49.404;8.246;2022-07-03T06:09:58;18.50;99.90
19449;DHT22;9863;49.404;8.246;2022-07-03T06:12:26;18.60;99.90
19449;DHT22;9863;49.404;8.246;2022-07-03T06:14:54;18.70;99.90
19449;DHT22;9863;49.404;8.246;2022-07-03T06:17:28;18.80;99.90
19449;DHT22;9863;49.404;8.246;2022-07-03T06:19:56;18.90;99.90
19449;DHT22;9863;49.404;8.246;2022-07-03T06:22:24;19.20;99.90
19449;DHT22;9863;49.404;8.246;2022-07-03T06:24:52;19.20;99.90
19449;DHT22;9863;49.404;8.246;2022-07-03T06:27:20;19.20;99.90
19449;DHT22;9863;49.404;8.246;2022-07-03T06:29:49;19.40;99.90
19449;DHT22;9863;49.404;8.246;2022-07-03T06:32:18;19.60;99.90
19449;DHT22;9863;49.404;8.246;2022-07-03T06:34:47;19.80;99.90
19449;DHT22;9863;49.404;8.246;2022-07-03T06:37:15;20.10;99.90
19449;DHT22;9863;49.404;8.246;2022-07-03T06:39:43;20.40;99.90
19449;DHT22;9863;49.404;8.246;2022-07-03T06:42:12;20.50;99.90
19449;DHT22;9863;49.404;8.246;2022-07-03T06:44:40;20.60;99.90
19449;DHT22;9863;49.404;8.246;2022-07-03T06:47:08;20.70;99.90
19449;DHT22;9863;49.404;8.246;2022-07-03T06:49:36;21.10;99.90
19449;DHT22;9863;49.404;8.246;2022-07-03T06:52:04;21.10;99.90
19449;DHT22;9863;49.404;8.246;2022-07-03T06:57:01;21.80;99.90
19449;DHT22;9863;49.404;8.246;2022-07-03T06:59:29;22.00;99.90
19449;DHT22;9863;49.404;8.246;2022-07-03T07:01:57;22.00;99.90
19449;DHT22;9863;49.404;8.246;2022-07-03T07:06:53;22.70;99.90
19449;DHT22;9863;49.404;8.246;2022-07-03T07:09:21;22.60;99.90
19449;DHT22;9863;49.404;8.246;2022-07-03T07:11:49;22.70;99.90
19449;DHT22;9863;49.404;8.246;2022-07-03T07:14:17;23.00;99.90
19449;DHT22;9863;49.404;8.246;2022-07-03T07:16:45;23.10;99.90
19449;DHT22;9863;49.404;8.246;2022-07-03T07:19:13;23.60;99.90
19449;DHT22;9863;49.404;8.246;2022-07-03T07:21:41;23.60;99.90
19449;DHT22;9863;49.404;8.246;2022-07-03T07:24:09;24.10;99.90
19449;DHT22;9863;49.404;8.246;2022-07-03T07:26:37;24.10;99.90
19449;DHT22;9863;49.404;8.246;2022-07-03T07:29:05;24.50;99.90
19449;DHT22;9863;49.404;8.246;2022-07-03T07:31:33;24.50;99.90
19449;DHT22;9863;49.404;8.246;2022-07-03T07:34:01;25.20;99.90
19449;DHT22;9863;49.404;8.246;2022-07-03T07:36:32;25.20;99.90
19449;DHT22;9863;49.404;8.246;2022-07-03T07:39:01;25.50;99.90
19449;DHT22;9863;49.404;8.246;2022-07-03T07:41:28;25.60;99.90
19449;DHT22;9863;49.404;8.246;2022-07-03T07:43:56;25.40;99.90
19449;DHT22;9863;49.404;8.246;2022-07-03T07:46:24;25.40;99.90
19449;DHT22;9863;49.404;8.246;2022-07-03T07:48:53;25.50;99.90
19449;DHT22;9863;49.404;8.246;2022-07-03T07:51:21;25.90;99.90
19449;DHT22;9863;49.404;8.246;2022-07-03T07:53:49;26.50;99.90
19449;DHT22;9863;49.404;8.246;2022-07-03T07:56:17;26.50;99.90
19449;DHT22;9863;49.404;8.246;2022-07-03T07:58:45;26.80;99.90
19449;DHT22;9863;49.404;8.246;2022-07-03T08:01:13;26.80;99.90
19449;DHT22;9863;49.404;8.246;2022-07-03T08:04:00;27.10;99.90
19449;DHT22;9863;49.404;8.246;2022-07-03T08:06:47;27.60;99.90
19449;DHT22;9863;49.404;8.246;2022-07-03T08:09:15;27.60;99.90
19449;DHT22;9863;49.404;8.246;2022-07-03T08:11:44;27.80;99.90
19449;DHT22;9863;49.404;8.246;2022-07-03T08:14:12;27.70;99.90
19449;DHT22;9863;49.404;8.246;2022-07-03T08:16:40;27.80;99.90
19449;DHT22;9863;49.404;8.246;2022-07-03T08:19:08;28.20;99.90
19449;DHT22;9863;49.404;8.246;2022-07-03T08:26:33;28.40;99.90
19449;DHT22;9863;49.404;8.246;2022-07-03T08:29:01;28.80;99.90
19449;DHT22;9863;49.404;8.246;2022-07-03T08:31:29;28.70;99.90
19449;DHT22;9863;49.404;8.246;2022-07-03T08:33:57;27.50;99.90
19449;DHT22;9863;49.404;8.246;2022-07-03T08:36:25;27.90;99.90
19449;DHT22;9863;49.404;8.246;2022-07-03T08:38:52;28.10;99.90
19449;DHT22;9863;49.404;8.246;2022-07-03T08:41:21;28.40;99.90
19449;DHT22;9863;49.404;8.246;2022-07-03T08:43:50;28.50;99.90
19449;DHT22;9863;49.404;8.246;2022-07-03T08:46:19;28.50;99.90
19449;DHT22;9863;49.404;8.246;2022-07-03T08:48:49;28.60;99.90
19449;DHT22;9863;49.404;8.246;2022-07-03T08:51:19;28.60;99.90
19449;DHT22;9863;49.404;8.246;2022-07-03T08:53:50;28.80;99.90
19449;DHT22;9863;49.404;8.246;2022-07-03T08:56:24;29.00;99.90
19449;DHT22;9863;49.404;8.246;2022-07-03T08:58:58;28.60;99.90
19449;DHT22;9863;49.404;8.246;2022-07-03T09:01:26;28.80;99.90
19449;DHT22;9863;49.404;8.246;2022-07-03T09:03:54;29.20;99.90
19449;DHT22;9863;49.404;8.246;2022-07-03T09:06:24;30.00;99.90
19449;DHT22;9863;49.404;8.246;2022-07-03T09:08:54;29.80;99.90
19449;DHT22;9863;49.404;8.246;2022-07-03T09:11:23;30.20;99.90
19449;DHT22;9863;49.404;8.246;2022-07-03T09:13:51;30.30;99.90
19449;DHT22;9863;49.404;8.246;2022-07-03T09:16:22;30.40;99.90
19449;DHT22;9863;49.404;8.246;2022-07-03T09:18:50;30.50;99.90
19449;DHT22;9863;49.404;8.246;2022-07-03T09:21:19;30.20;99.90
19449;DHT22;9863;49.404;8.246;2022-07-03T09:23:48;30.10;99.90
19449;DHT22;9863;49.404;8.246;2022-07-03T09:26:17;29.90;99.90
19449;DHT22;9863;49.404;8.246;2022-07-03T09:28:49;29.90;99.90
19449;DHT22;9863;49.404;8.246;2022-07-03T09:31:22;30.00;99.90
19449;DHT22;9863;49.404;8.246;2022-07-03T09:33:59;30.20;99.90
19449;DHT22;9863;49.404;8.246;2022-07-03T09:39:31;30.80;99.90
19449;DHT22;9863;49.404;8.246;2022-07-03T09:42:09;31.10;99.90
19449;DHT22;9863;49.404;8.246;2022-07-03T09:44:42;30.80;98.00
19449;DHT22;9863;49.404;8.246;2022-07-03T09:47:23;30.60;98.40
19449;DHT22;9863;49.404;8.246;2022-07-03T09:50:02;30.50;97.80
19449;DHT22;9863;49.404;8.246;2022-07-03T09:52:38;30.70;98.90
19449;DHT22;9863;49.404;8.246;2022-07-03T09:55:12;30.60;99.50
19449;DHT22;9863;49.404;8.246;2022-07-03T10:00:26;31.10;97.60
19449;DHT22;9863;49.404;8.246;2022-07-03T10:05:38;31.20;96.30
19449;DHT22;9863;49.404;8.246;2022-07-03T10:08:15;31.00;95.00
19449;DHT22;9863;49.404;8.246;2022-07-03T10:10:45;31.00;94.90
19449;DHT22;9863;49.404;8.246;2022-07-03T10:13:14;30.90;94.10
19449;DHT22;9863;49.404;8.246;2022-07-03T10:15:43;31.70;97.00
19449;DHT22;9863;49.404;8.246;2022-07-03T10:18:12;31.70;95.60
19449;DHT22;9863;49.404;8.246;2022-07-03T10:20:47;31.60;93.00
19449;DHT22;9863;49.404;8.246;2022-07-03T10:23:20;31.30;90.60
19449;DHT22;9863;49.404;8.246;2022-07-03T10:25:49;31.20;90.50
19449;DHT22;9863;49.404;8.246;2022-07-03T10:28:18;31.50;93.20
19449;DHT22;9863;49.404;8.246;2022-07-03T10:30:47;31.50;91.70
19449;DHT22;9863;49.404;8.246;2022-07-03T10:33:16;31.50;91.90
19449;DHT22;9863;49.404;8.246;2022-07-03T10:35:53;31.00;91.10
19449;DHT22;9863;49.404;8.246;2022-07-03T10:38:39;32.30;92.00
19449;DHT22;9863;49.404;8.246;2022-07-03T10:41:34;31.50;92.50
19449;DHT22;9863;49.404;8.246;2022-07-03T10:44:21;31.80;93.30
19449;DHT22;9863;49.404;8.246;2022-07-03T10:47:47;32.00;92.30
19449;DHT22;9863;49.404;8.246;2022-07-03T10:50:21;31.90;90.90
19449;DHT22;9863;49.404;8.246;2022-07-03T10:52:50;32.00;90.60
19449;DHT22;9863;49.404;8.246;2022-07-03T10:55:19;32.20;92.40
19449;DHT22;9863;49.404;8.246;2022-07-03T10:58:07;32.50;92.70
19449;DHT22;9863;49.404;8.246;2022-07-03T11:00:56;33.30;91.60
19449;DHT22;9863;49.404;8.246;2022-07-03T11:03:52;33.40;92.20
19449;DHT22;9863;49.404;8.246;2022-07-03T11:09:12;32.50;89.00
19449;DHT22;9863;49.404;8.246;2022-07-03T11:11:47;32.50;89.30
19449;DHT22;9863;49.404;8.246;2022-07-03T11:14:29;33.10;89.50
19449;DHT22;9863;49.404;8.246;2022-07-03T11:17:19;33.90;93.30
19449;DHT22;9863;49.404;8.246;2022-07-03T11:19:49;34.20;82.50
19449;DHT22;9863;49.404;8.246;2022-07-03T11:23:00;34.10;85.10
19449;DHT22;9863;49.404;8.246;2022-07-03T11:25:44;34.10;87.10
19449;DHT22;9863;49.404;8.246;2022-07-03T11:41:49;33.30;88.00
19449;DHT22;9863;49.404;8.246;2022-07-03T11:44:18;33.00;85.60
19449;DHT22;9863;49.404;8.246;2022-07-03T11:46:49;33.10;86.20
19449;DHT22;9863;49.404;8.246;2022-07-03T11:49:21;32.90;82.70
19449;DHT22;9863;49.404;8.246;2022-07-03T11:52:01;32.70;83.10
19449;DHT22;9863;49.404;8.246;2022-07-03T11:54:31;32.50;85.30
19449;DHT22;9863;49.404;8.246;2022-07-03T11:57:00;33.20;83.50
19449;DHT22;9863;49.404;8.246;2022-07-03T11:59:28;33.50;83.10
19449;DHT22;9863;49.404;8.246;2022-07-03T12:02:02;33.20;82.40
19449;DHT22;9863;49.404;8.246;2022-07-03T12:04:31;33.20;83.30
19449;DHT22;9863;49.404;8.246;2022-07-03T12:07:00;33.40;85.60
19449;DHT22;9863;49.404;8.246;2022-07-03T12:09:34;33.40;82.60
19449;DHT22;9863;49.404;8.246;2022-07-03T12:17:26;33.30;82.00
19449;DHT22;9863;49.404;8.246;2022-07-03T12:19:56;33.40;80.20
19449;DHT22;9863;49.404;8.246;2022-07-03T12:22:34;33.50;78.60
19449;DHT22;9863;49.404;8.246;2022-07-03T12:27:38;33.80;77.30
19449;DHT22;9863;49.404;8.246;2022-07-03T12:30:20;33.80;77.90
19449;DHT22;9863;49.404;8.246;2022-07-03T12:32:55;33.60;78.00
19449;DHT22;9863;49.404;8.246;2022-07-03T12:35:25;33.70;81.30
19449;DHT22;9863;49.404;8.246;2022-07-03T12:37:54;33.90;77.00
19449;DHT22;9863;49.404;8.246;2022-07-03T12:40:23;33.70;77.30
19449;DHT22;9863;49.404;8.246;2022-07-03T12:42:53;33.90;77.10
19449;DHT22;9863;49.404;8.246;2022-07-03T12:45:26;33.80;77.20
19449;DHT22;9863;49.404;8.246;2022-07-03T12:47:57;33.90;78.60
19449;DHT22;9863;49.404;8.246;2022-07-03T12:50:44;34.00;77.30
19449;DHT22;9863;49.404;8.246;2022-07-03T12:53:32;33.50;76.10
19449;DHT22;9863;49.404;8.246;2022-07-03T12:56:05;34.00;76.50
19449;DHT22;9863;49.404;8.246;2022-07-03T12:58:35;34.10;77.30
19449;DHT22;9863;49.404;8.246;2022-07-03T13:01:31;33.60;72.00
19449;DHT22;9863;49.404;8.246;2022-07-03T13:04:07;33.20;73.10
19449;DHT22;9863;49.404;8.246;2022-07-03T13:06:45;32.90;73.10
19449;DHT22;9863;49.404;8.246;2022-07-03T13:09:14;32.90;72.30
19449;DHT22;9863;49.404;8.246;2022-07-03T13:11:42;32.80;73.40
19449;DHT22;9863;49.404;8.246;2022-07-03T13:14:12;32.70;74.80
19449;DHT22;9863;49.404;8.246;2022-07-03T13:16:49;32.80;75.40
19449;DHT22;9863;49.404;8.246;2022-07-03T13:19:25;32.70;74.90
19449;DHT22;9863;49.404;8.246;2022-07-03T13:21:56;32.70;76.20
19449;DHT22;9863;49.404;8.246;2022-07-03T13:24:24;32.80;76.30
19449;DHT22;9863;49.404;8.246;2022-07-03T13:26:57;32.90;75.70
19449;DHT22;9863;49.404;8.246;2022-07-03T13:29:26;33.20;75.70
19449;DHT22;9863;49.404;8.246;2022-07-03T13:31:54;33.10;73.60
19449;DHT22;9863;49.404;8.246;2022-07-03T13:34:23;32.80;74.10
19449;DHT22;9863;49.404;8.246;2022-07-03T13:36:51;32.50;71.90
19449;DHT22;9863;49.404;8.246;2022-07-03T13:39:19;32.90;77.10
19449;DHT22;9863;49.404;8.246;2022-07-03T13:41:47;33.30;76.80
19449;DHT22;9863;49.404;8.246;2022-07-03T13:44:15;33.20;70.40
19449;DHT22;9863;49.404;8.246;2022-07-03T13:46:43;32.90;72.70
19449;DHT22;9863;49.404;8.246;2022-07-03T13:49:17;33.00;73.50
19449;DHT22;9863;49.404;8.246;2022-07-03T13:51:47;33.20;73.00
19449;DHT22;9863;49.404;8.246;2022-07-03T13:54:15;34.40;73.10
19449;DHT22;9863;49.404;8.246;2022-07-03T13:56:44;33.60;73.00
19449;DHT22;9863;49.404;8.246;2022-07-03T13:59:12;33.60;72.40
19449;DHT22;9863;49.404;8.246;2022-07-03T14:04:08;33.60;71.70
19449;DHT22;9863;49.404;8.246;2022-07-03T14:09:05;33.80;73.10
19449;DHT22;9863;49.404;8.246;2022-07-03T14:18:58;33.80;73.10
19449;DHT22;9863;49.404;8.246;2022-07-03T14:21:26;33.90;70.50
19449;DHT22;9863;49.404;8.246;2022-07-03T14:23:54;34.00;74.70
19449;DHT22;9863;49.404;8.246;2022-07-03T14:29:09;33.70;73.40
19449;DHT22;9863;49.404;8.246;2022-07-03T14:31:56;33.90;70.50
19449;DHT22;9863;49.404;8.246;2022-07-03T14:37:17;35.60;82.00
19449;DHT22;9863;49.404;8.246;2022-07-03T14:42:16;35.50;74.80
19449;DHT22;9863;49.404;8.246;2022-07-03T14:44:44;35.20;75.20
19449;DHT22;9863;49.404;8.246;2022-07-03T14:47:13;34.80;75.30
19449;DHT22;9863;49.404;8.246;2022-07-03T14:49:42;35.10;76.30
19449;DHT22;9863;49.404;8.246;2022-07-03T14:52:11;35.20;77.10
19449;DHT22;9863;49.404;8.246;2022-07-03T14:54:40;35.50;75.50
19449;DHT22;9863;49.404;8.246;2022-07-03T15:00:19;35.10;68.90
19449;DHT22;9863;49.404;8.246;2022-07-03T15:03:05;34.70;73.20
19449;DHT22;9863;49.404;8.246;2022-07-03T15:05:40;34.60;73.90
19449;DHT22;9863;49.404;8.246;2022-07-03T15:08:32;34.30;72.30
19449;DHT22;9863;49.404;8.246;2022-07-03T15:11:13;34.10;74.60
19449;DHT22;9863;49.404;8.246;2022-07-03T15:14:04;34.70;75.30
19449;DHT22;9863;49.404;8.246;2022-07-03T15:16:34;35.10;73.70
19449;DHT22;9863;49.404;8.246;2022-07-03T15:19:02;35.20;71.70
19449;DHT22;9863;49.404;8.246;2022-07-03T15:21:31;34.60;69.90
19449;DHT22;9863;49.404;8.246;2022-07-03T15:24:04;34.60;70.80
19449;DHT22;9863;49.404;8.246;2022-07-03T15:26:33;34.60;71.80
19449;DHT22;9863;49.404;8.246;2022-07-03T15:29:03;34.40;69.00
19449;DHT22;9863;49.404;8.246;2022-07-03T15:31:35;34.50;72.20
19449;DHT22;9863;49.404;8.246;2022-07-03T15:34:05;34.60;72.90
19449;DHT22;9863;49.404;8.246;2022-07-03T15:36:56;34.70;74.40
19449;DHT22;9863;49.404;8.246;2022-07-03T15:39:51;34.60;70.10
19449;DHT22;9863;49.404;8.246;2022-07-03T15:48:03;35.40;69.40
19449;DHT22;9863;49.404;8.246;2022-07-03T15:51:09;35.40;70.20
19449;DHT22;9863;49.404;8.246;2022-07-03T15:54:02;35.20;72.10
19449;DHT22;9863;49.404;8.246;2022-07-03T15:56:42;35.10;71.00
19449;DHT22;9863;49.404;8.246;2022-07-03T15:59:13;35.40;70.90
19449;DHT22;9863;49.404;8.246;2022-07-03T16:01:51;35.30;70.20
19449;DHT22;9863;49.404;8.246;2022-07-03T16:04:58;35.60;70.50
19449;DHT22;9863;49.404;8.246;2022-07-03T16:07:34;35.40;68.20
19449;DHT22;9863;49.404;8.246;2022-07-03T16:10:08;35.00;69.80
19449;DHT22;9863;49.404;8.246;2022-07-03T16:12:38;35.20;67.10
19449;DHT22;9863;49.404;8.246;2022-07-03T16:15:10;35.20;71.00
19449;DHT22;9863;49.404;8.246;2022-07-03T16:17:38;35.10;70.20
19449;DHT22;9863;49.404;8.246;2022-07-03T16:20:08;34.90;69.70
19449;DHT22;9863;49.404;8.246;2022-07-03T16:22:37;35.30;72.70
19449;DHT22;9863;49.404;8.246;2022-07-03T16:25:06;35.80;72.30
19449;DHT22;9863;49.404;8.246;2022-07-03T16:27:41;35.50;71.20
19449;DHT22;9863;49.404;8.246;2022-07-03T16:32:40;35.10;66.80
19449;DHT22;9863;49.404;8.246;2022-07-03T16:35:26;35.00;69.40
19449;DHT22;9863;49.404;8.246;2022-07-03T16:38:01;35.20;69.10
19449;DHT22;9863;49.404;8.246;2022-07-03T16:40:32;35.00;71.60
19449;DHT22;9863;49.404;8.246;2022-07-03T16:43:03;35.30;71.40
19449;DHT22;9863;49.404;8.246;2022-07-03T16:45:33;35.40;72.80
19449;DHT22;9863;49.404;8.246;2022-07-03T16:48:12;35.60;71.50
19449;DHT22;9863;49.404;8.246;2022-07-03T16:50:51;35.40;69.60
19449;DHT22;9863;49.404;8.246;2022-07-03T16:53:21;35.20;68.90
19449;DHT22;9863;49.404;8.246;2022-07-03T16:55:49;35.20;69.30
19449;DHT22;9863;49.404;8.246;2022-07-03T16:58:18;34.80;70.50
19449;DHT22;9863;49.404;8.246;2022-07-03T17:00:46;34.30;68.70
19449;DHT22;9863;49.404;8.246;2022-07-03T17:03:17;34.60;69.40
19449;DHT22;9863;49.404;8.246;2022-07-03T17:05:51;34.70;68.50
19449;DHT22;9863;49.404;8.246;2022-07-03T17:08:21;34.50;69.90
19449;DHT22;9863;49.404;8.246;2022-07-03T17:13:18;34.90;69.70
19449;DHT22;9863;49.404;8.246;2022-07-03T17:15:47;34.20;69.10
19449;DHT22;9863;49.404;8.246;2022-07-03T17:20:45;34.60;70.80
19449;DHT22;9863;49.404;8.246;2022-07-03T17:23:19;34.40;69.20
19449;DHT22;9863;49.404;8.246;2022-07-03T17:26:02;34.10;67.30
19449;DHT22;9863;49.404;8.246;2022-07-03T17:28:47;34.00;70.30
19449;DHT22;9863;49.404;8.246;2022-07-03T17:31:19;34.50;71.30
19449;DHT22;9863;49.404;8.246;2022-07-03T17:34:01;34.70;71.30
19449;DHT22;9863;49.404;8.246;2022-07-03T17:39:00;33.70;69.00
19449;DHT22;9863;49.404;8.246;2022-07-03T17:41:31;33.90;69.00
19449;DHT22;9863;49.404;8.246;2022-07-03T17:44:00;34.20;69.20
19449;DHT22;9863;49.404;8.246;2022-07-03T17:46:30;33.30;70.80
19449;DHT22;9863;49.404;8.246;2022-07-03T17:51:27;33.80;70.30
19449;DHT22;9863;49.404;8.246;2022-07-03T17:53:57;34.80;69.30
19449;DHT22;9863;49.404;8.246;2022-07-03T17:56:27;33.70;72.30
19449;DHT22;9863;49.404;8.246;2022-07-03T17:58:58;33.50;70.20
19449;DHT22;9863;49.404;8.246;2022-07-03T18:03:58;33.20;71.60
19449;DHT22;9863;49.404;8.246;2022-07-03T18:06:33;32.80;70.60
19449;DHT22;9863;49.404;8.246;2022-07-03T18:09:26;32.40;72.70
19449;DHT22;9863;49.404;8.246;2022-07-03T18:11:59;31.60;72.50
19449;DHT22;9863;49.404;8.246;2022-07-03T18:14:45;32.00;75.00
19449;DHT22;9863;49.404;8.246;2022-07-03T18:17:14;31.30;73.80